sensor_id;sensor_type;location;lat;lon;timestamp;P1;durP1;ratioP1;P2;durP2;ratioP2
19804;SDS011;10062;51.052;13.756;2024-01-11T00:01:37;33.57;;;15.47;;
19804;SDS011;10062;51.052;13.756;2024-01-11T00:04:09;31.87;;;15.17;;
19804;SDS011;10062;51.052;13.756;2024-01-11T00:06:43;40.53;;;15.47;;
19804;SDS011;10062;51.052;13.756;2024-01-11T00:09:15;34.03;;;15.00;;
19804;SDS011;10062;51.052;13.756;2024-01-11T00:11:47;36.40;;;16.83;;
19804;SDS011;10062;51.052;13.756;2024-01-11T00:14:19;33.27;;;14.87;;
19804;SDS011;10062;51.052;13.756;2024-01-11T00:16:50;30.00;;;15.57;;
19804;SDS011;10062;51.052;13.756;2024-01-11T00:19:22;33.43;;;14.47;;
19804;SDS011;10062;51.052;13.756;2024-01-11T00:21:55;30.33;;;14.30;;
19804;SDS011;10062;51.052;13.756;2024-01-11T00:24:27;33.53;;;15.63;;
19804;SDS011;10062;51.052;13.756;2024-01-11T00:26:58;24.03;;;14.87;;
19804;SDS011;10062;51.052;13.756;2024-01-11T00:29:30;32.63;;;15.47;;
19804;SDS011;10062;51.052;13.756;2024-01-11T00:32:02;39.03;;;15.67;;
19804;SDS011;10062;51.052;13.756;2024-01-11T00:34:34;32.23;;;13.90;;
19804;SDS011;10062;51.052;13.756;2024-01-11T00:37:08;31.57;;;13.33;;
19804;SDS011;10062;51.052;13.756;2024-01-11T00:39:39;37.13;;;13.70;;
19804;SDS011;10062;51.052;13.756;2024-01-11T00:42:11;33.13;;;14.70;;
19804;SDS011;10062;51.052;13.756;2024-01-11T00:44:43;33.47;;;15.23;;
19804;SDS011;10062;51.052;13.756;2024-01-11T00:47:15;41.50;;;14.83;;
19804;SDS011;10062;51.052;13.756;2024-01-11T00:49:47;33.80;;;14.60;;
19804;SDS011;10062;51.052;13.756;2024-01-11T00:52:20;29.43;;;13.33;;
19804;SDS011;10062;51.052;13.756;2024-01-11T00:54:52;34.53;;;14.93;;
19804;SDS011;10062;51.052;13.756;2024-01-11T00:57:23;28.53;;;12.53;;
19804;SDS011;10062;51.052;13.756;2024-01-11T00:59:55;29.40;;;12.70;;
19804;SDS011;10062;51.052;13.756;2024-01-11T01:02:27;29.97;;;13.10;;
19804;SDS011;10062;51.052;13.756;2024-01-11T01:04:59;26.17;;;12.80;;
19804;SDS011;10062;51.052;13.756;2024-01-11T01:07:32;24.77;;;12.00;;
19804;SDS011;10062;51.052;13.756;2024-01-11T01:10:04;24.63;;;11.87;;
19804;SDS011;10062;51.052;13.756;2024-01-11T01:12:37;31.40;;;13.83;;
19804;SDS011;10062;51.052;13.756;2024-01-11T01:15:09;28.23;;;13.53;;
19804;SDS011;10062;51.052;13.756;2024-01-11T01:17:40;25.00;;;12.10;;
19804;SDS011;10062;51.052;13.756;2024-01-11T01:20:12;28.50;;;12.73;;
19804;SDS011;10062;51.052;13.756;2024-01-11T01:22:46;33.83;;;14.40;;
19804;SDS011;10062;51.052;13.756;2024-01-11T01:25:17;31.20;;;13.83;;
19804;SDS011;10062;51.052;13.756;2024-01-11T01:27:49;24.73;;;12.17;;
19804;SDS011;10062;51.052;13.756;2024-01-11T01:30:20;29.53;;;12.73;;
19804;SDS011;10062;51.052;13.756;2024-01-11T01:32:53;30.53;;;13.90;;
19804;SDS011;10062;51.052;13.756;2024-01-11T01:35:25;34.60;;;14.40;;
19804;SDS011;10062;51.052;13.756;2024-01-11T01:37:58;31.50;;;13.10;;
19804;SDS011;10062;51.052;13.756;2024-01-11T01:40:29;32.73;;;12.97;;
19804;SDS011;10062;51.052;13.756;2024-01-11T01:43:06;31.10;;;11.93;;
19804;SDS011;10062;51.052;13.756;2024-01-11T01:45:39;27.20;;;12.97;;
19804;SDS011;10062;51.052;13.756;2024-01-11T01:48:11;31.27;;;12.63;;
19804;SDS011;10062;51.052;13.756;2024-01-11T01:50:43;30.03;;;13.80;;
19804;SDS011;10062;51.052;13.756;2024-01-11T01:53:21;28.83;;;12.77;;
19804;SDS011;10062;51.052;13.756;2024-01-11T01:55:54;36.47;;;13.33;;
19804;SDS011;10062;51.052;13.756;2024-01-11T01:58:27;32.63;;;13.00;;
19804;SDS011;10062;51.052;13.756;2024-01-11T02:00:59;33.33;;;13.17;;
19804;SDS011;10062;51.052;13.756;2024-01-11T02:03:31;27.67;;;12.10;;
19804;SDS011;10062;51.052;13.756;2024-01-11T02:06:06;34.97;;;13.30;;
19804;SDS011;10062;51.052;13.756;2024-01-11T02:08:39;24.80;;;12.40;;
19804;SDS011;10062;51.052;13.756;2024-01-11T02:11:13;30.73;;;13.13;;
19804;SDS011;10062;51.052;13.756;2024-01-11T02:13:46;28.20;;;13.07;;
19804;SDS011;10062;51.052;13.756;2024-01-11T02:16:17;25.67;;;11.47;;
19804;SDS011;10062;51.052;13.756;2024-01-11T02:18:49;32.30;;;12.80;;
19804;SDS011;10062;51.052;13.756;2024-01-11T02:21:21;25.13;;;11.97;;
19804;SDS011;10062;51.052;13.756;2024-01-11T02:24:02;26.23;;;12.07;;
19804;SDS011;10062;51.052;13.756;2024-01-11T02:26:34;29.83;;;12.93;;
19804;SDS011;10062;51.052;13.756;2024-01-11T02:29:06;24.30;;;10.97;;
19804;SDS011;10062;51.052;13.756;2024-01-11T02:31:38;24.13;;;11.73;;
19804;SDS011;10062;51.052;13.756;2024-01-11T02:34:09;21.67;;;10.67;;
19804;SDS011;10062;51.052;13.756;2024-01-11T02:36:41;25.90;;;12.63;;
19804;SDS011;10062;51.052;13.756;2024-01-11T02:39:15;21.20;;;10.83;;
19804;SDS011;10062;51.052;13.756;2024-01-11T02:41:50;27.23;;;11.43;;
19804;SDS011;10062;51.052;13.756;2024-01-11T02:44:22;26.37;;;11.67;;
19804;SDS011;10062;51.052;13.756;2024-01-11T02:46:54;25.57;;;11.53;;
19804;SDS011;10062;51.052;13.756;2024-01-11T02:49:25;23.37;;;11.53;;
19804;SDS011;10062;51.052;13.756;2024-01-11T02:51:57;22.23;;;11.47;;
19804;SDS011;10062;51.052;13.756;2024-01-11T02:54:30;26.40;;;11.43;;
19804;SDS011;10062;51.052;13.756;2024-01-11T02:57:02;22.70;;;11.53;;
19804;SDS011;10062;51.052;13.756;2024-01-11T02:59:34;26.10;;;11.97;;
19804;SDS011;10062;51.052;13.756;2024-01-11T03:02:07;26.17;;;11.60;;
19804;SDS011;10062;51.052;13.756;2024-01-11T03:04:38;27.80;;;12.20;;
19804;SDS011;10062;51.052;13.756;2024-01-11T03:07:10;23.63;;;10.83;;
19804;SDS011;10062;51.052;13.756;2024-01-11T03:09:43;23.40;;;11.50;;
19804;SDS011;10062;51.052;13.756;2024-01-11T03:12:15;23.40;;;11.73;;
19804;SDS011;10062;51.052;13.756;2024-01-11T03:14:46;23.90;;;11.13;;
19804;SDS011;10062;51.052;13.756;2024-01-11T03:17:18;26.87;;;11.73;;
19804;SDS011;10062;51.052;13.756;2024-01-11T03:19:49;27.73;;;11.60;;
19804;SDS011;10062;51.052;13.756;2024-01-11T03:22:21;29.03;;;12.83;;
19804;SDS011;10062;51.052;13.756;2024-01-11T03:24:54;25.30;;;12.37;;
19804;SDS011;10062;51.052;13.756;2024-01-11T03:27:26;24.53;;;10.63;;
19804;SDS011;10062;51.052;13.756;2024-01-11T03:29:58;31.90;;;11.40;;
19804;SDS011;10062;51.052;13.756;2024-01-11T03:32:30;25.37;;;10.97;;
19804;SDS011;10062;51.052;13.756;2024-01-11T03:35:02;29.70;;;12.87;;
19804;SDS011;10062;51.052;13.756;2024-01-11T03:37:34;23.67;;;11.40;;
19804;SDS011;10062;51.052;13.756;2024-01-11T03:40:08;27.27;;;11.17;;
19804;SDS011;10062;51.052;13.756;2024-01-11T03:42:41;30.57;;;12.33;;
19804;SDS011;10062;51.052;13.756;2024-01-11T03:45:13;20.10;;;10.97;;
19804;SDS011;10062;51.052;13.756;2024-01-11T03:47:44;23.43;;;10.43;;
19804;SDS011;10062;51.052;13.756;2024-01-11T03:50:17;26.90;;;10.50;;
19804;SDS011;10062;51.052;13.756;2024-01-11T03:52:49;22.93;;;10.60;;
19804;SDS011;10062;51.052;13.756;2024-01-11T03:55:22;25.03;;;11.27;;
19804;SDS011;10062;51.052;13.756;2024-01-11T03:57:54;32.07;;;11.50;;
19804;SDS011;10062;51.052;13.756;2024-01-11T04:00:26;22.50;;;9.77;;
19804;SDS011;10062;51.052;13.756;2024-01-11T04:02:58;26.20;;;11.17;;
19804;SDS011;10062;51.052;13.756;2024-01-11T04:05:29;24.53;;;11.40;;
19804;SDS011;10062;51.052;13.756;2024-01-11T04:08:03;24.30;;;11.00;;
19804;SDS011;10062;51.052;13.756;2024-01-11T04:10:37;20.80;;;9.33;;
19804;SDS011;10062;51.052;13.756;2024-01-11T04:13:08;26.10;;;10.03;;
19804;SDS011;10062;51.052;13.756;2024-01-11T04:15:40;18.17;;;8.77;;
19804;SDS011;10062;51.052;13.756;2024-01-11T04:18:12;27.93;;;10.30;;
19804;SDS011;10062;51.052;13.756;2024-01-11T04:20:45;21.10;;;8.30;;
19804;SDS011;10062;51.052;13.756;2024-01-11T04:23:16;25.23;;;11.20;;
19804;SDS011;10062;51.052;13.756;2024-01-11T04:25:49;22.30;;;10.07;;
19804;SDS011;10062;51.052;13.756;2024-01-11T04:28:21;25.33;;;12.03;;
19804;SDS011;10062;51.052;13.756;2024-01-11T04:30:53;26.17;;;10.53;;
19804;SDS011;10062;51.052;13.756;2024-01-11T04:33:24;29.93;;;11.93;;
19804;SDS011;10062;51.052;13.756;2024-01-11T04:35:57;26.83;;;13.17;;
19804;SDS011;10062;51.052;13.756;2024-01-11T04:38:29;25.23;;;12.10;;
19804;SDS011;10062;51.052;13.756;2024-01-11T04:41:02;22.33;;;10.43;;
19804;SDS011;10062;51.052;13.756;2024-01-11T04:43:38;26.00;;;10.87;;
19804;SDS011;10062;51.052;13.756;2024-01-11T04:46:13;20.43;;;8.97;;
19804;SDS011;10062;51.052;13.756;2024-01-11T04:48:46;28.03;;;13.27;;
19804;SDS011;10062;51.052;13.756;2024-01-11T04:51:18;25.40;;;11.90;;
19804;SDS011;10062;51.052;13.756;2024-01-11T04:53:50;23.70;;;11.17;;
19804;SDS011;10062;51.052;13.756;2024-01-11T04:56:23;28.43;;;11.57;;
19804;SDS011;10062;51.052;13.756;2024-01-11T04:58:55;26.33;;;11.23;;
19804;SDS011;10062;51.052;13.756;2024-01-11T05:01:27;26.20;;;11.53;;
19804;SDS011;10062;51.052;13.756;2024-01-11T05:03:58;24.37;;;11.97;;
19804;SDS011;10062;51.052;13.756;2024-01-11T05:06:30;28.23;;;11.33;;
19804;SDS011;10062;51.052;13.756;2024-01-11T05:09:02;29.13;;;12.37;;
19804;SDS011;10062;51.052;13.756;2024-01-11T05:11:36;22.33;;;9.83;;
19804;SDS011;10062;51.052;13.756;2024-01-11T05:14:08;32.13;;;12.10;;
19804;SDS011;10062;51.052;13.756;2024-01-11T05:16:40;26.03;;;10.83;;
19804;SDS011;10062;51.052;13.756;2024-01-11T05:19:11;20.40;;;10.33;;
19804;SDS011;10062;51.052;13.756;2024-01-11T05:21:43;14.63;;;5.87;;
19804;SDS011;10062;51.052;13.756;2024-01-11T05:24:14;26.37;;;11.03;;
19804;SDS011;10062;51.052;13.756;2024-01-11T05:26:47;15.67;;;8.07;;
19804;SDS011;10062;51.052;13.756;2024-01-11T05:29:19;23.50;;;9.07;;
19804;SDS011;10062;51.052;13.756;2024-01-11T05:31:51;25.73;;;10.10;;
19804;SDS011;10062;51.052;13.756;2024-01-11T05:34:22;26.17;;;10.53;;
19804;SDS011;10062;51.052;13.756;2024-01-11T05:36:54;23.77;;;9.97;;
19804;SDS011;10062;51.052;13.756;2024-01-11T05:39:26;24.60;;;9.37;;
19804;SDS011;10062;51.052;13.756;2024-01-11T05:41:59;23.70;;;9.70;;
19804;SDS011;10062;51.052;13.756;2024-01-11T05:44:30;23.50;;;10.30;;
19804;SDS011;10062;51.052;13.756;2024-01-11T05:47:02;21.10;;;9.47;;
19804;SDS011;10062;51.052;13.756;2024-01-11T05:49:34;20.13;;;9.43;;
19804;SDS011;10062;51.052;13.756;2024-01-11T05:52:06;18.20;;;8.50;;
19804;SDS011;10062;51.052;13.756;2024-01-11T05:54:38;23.37;;;10.60;;
19804;SDS011;10062;51.052;13.756;2024-01-11T05:57:11;21.83;;;9.10;;
19804;SDS011;10062;51.052;13.756;2024-01-11T05:59:43;27.50;;;12.00;;
19804;SDS011;10062;51.052;13.756;2024-01-11T06:02:14;19.63;;;10.03;;
19804;SDS011;10062;51.052;13.756;2024-01-11T06:04:46;19.10;;;9.17;;
19804;SDS011;10062;51.052;13.756;2024-01-11T06:07:19;22.23;;;10.77;;
19804;SDS011;10062;51.052;13.756;2024-01-11T06:09:50;25.30;;;10.17;;
19804;SDS011;10062;51.052;13.756;2024-01-11T06:12:24;21.87;;;8.40;;
19804;SDS011;10062;51.052;13.756;2024-01-11T06:14:56;24.67;;;9.50;;
19804;SDS011;10062;51.052;13.756;2024-01-11T06:17:27;20.17;;;10.57;;
19804;SDS011;10062;51.052;13.756;2024-01-11T06:19:59;27.27;;;11.70;;
19804;SDS011;10062;51.052;13.756;2024-01-11T06:22:31;20.73;;;9.30;;
19804;SDS011;10062;51.052;13.756;2024-01-11T06:25:03;25.93;;;10.77;;
19804;SDS011;10062;51.052;13.756;2024-01-11T06:27:36;31.10;;;15.00;;
19804;SDS011;10062;51.052;13.756;2024-01-11T06:30:09;32.20;;;13.03;;
19804;SDS011;10062;51.052;13.756;2024-01-11T06:32:41;32.80;;;11.73;;
19804;SDS011;10062;51.052;13.756;2024-01-11T06:35:13;31.20;;;13.53;;
19804;SDS011;10062;51.052;13.756;2024-01-11T06:37:45;26.90;;;11.50;;
19804;SDS011;10062;51.052;13.756;2024-01-11T06:40:17;20.87;;;11.03;;
19804;SDS011;10062;51.052;13.756;2024-01-11T06:42:50;33.40;;;12.07;;
19804;SDS011;10062;51.052;13.756;2024-01-11T06:45:22;52.03;;;23.23;;
19804;SDS011;10062;51.052;13.756;2024-01-11T06:47:54;27.80;;;11.53;;
19804;SDS011;10062;51.052;13.756;2024-01-11T06:50:26;28.13;;;12.23;;
19804;SDS011;10062;51.052;13.756;2024-01-11T06:52:59;23.93;;;11.30;;
19804;SDS011;10062;51.052;13.756;2024-01-11T06:55:31;16.10;;;7.73;;
19804;SDS011;10062;51.052;13.756;2024-01-11T06:58:04;14.77;;;7.90;;
19804;SDS011;10062;51.052;13.756;2024-01-11T07:00:35;28.93;;;10.63;;
19804;SDS011;10062;51.052;13.756;2024-01-11T07:03:07;24.07;;;10.27;;
19804;SDS011;10062;51.052;13.756;2024-01-11T07:05:39;24.03;;;9.93;;
19804;SDS011;10062;51.052;13.756;2024-01-11T07:08:11;30.33;;;13.53;;
19804;SDS011;10062;51.052;13.756;2024-01-11T07:10:43;17.40;;;10.50;;
19804;SDS011;10062;51.052;13.756;2024-01-11T07:13:16;27.10;;;11.20;;
19804;SDS011;10062;51.052;13.756;2024-01-11T07:15:48;15.40;;;7.03;;
19804;SDS011;10062;51.052;13.756;2024-01-11T07:18:21;22.90;;;10.43;;
19804;SDS011;10062;51.052;13.756;2024-01-11T07:20:55;18.47;;;9.37;;
19804;SDS011;10062;51.052;13.756;2024-01-11T07:23:27;21.47;;;9.10;;
19804;SDS011;10062;51.052;13.756;2024-01-11T07:25:59;20.47;;;10.03;;
19804;SDS011;10062;51.052;13.756;2024-01-11T07:28:32;24.57;;;11.67;;
19804;SDS011;10062;51.052;13.756;2024-01-11T07:31:03;22.37;;;9.83;;
19804;SDS011;10062;51.052;13.756;2024-01-11T07:33:36;19.53;;;8.83;;
19804;SDS011;10062;51.052;13.756;2024-01-11T07:36:07;19.33;;;9.50;;
19804;SDS011;10062;51.052;13.756;2024-01-11T07:38:39;20.43;;;9.53;;
19804;SDS011;10062;51.052;13.756;2024-01-11T07:41:11;18.50;;;8.63;;
19804;SDS011;10062;51.052;13.756;2024-01-11T07:43:45;24.90;;;10.50;;
19804;SDS011;10062;51.052;13.756;2024-01-11T07:46:16;28.07;;;12.30;;
19804;SDS011;10062;51.052;13.756;2024-01-11T07:48:48;23.33;;;10.97;;
19804;SDS011;10062;51.052;13.756;2024-01-11T07:51:21;28.93;;;11.43;;
19804;SDS011;10062;51.052;13.756;2024-01-11T07:53:53;23.33;;;10.60;;
19804;SDS011;10062;51.052;13.756;2024-01-11T07:56:24;18.60;;;9.50;;
19804;SDS011;10062;51.052;13.756;2024-01-11T07:58:57;21.57;;;11.23;;
19804;SDS011;10062;51.052;13.756;2024-01-11T08:01:29;18.30;;;9.33;;
19804;SDS011;10062;51.052;13.756;2024-01-11T08:04:01;25.60;;;11.33;;
19804;SDS011;10062;51.052;13.756;2024-01-11T08:06:33;21.93;;;9.77;;
19804;SDS011;10062;51.052;13.756;2024-01-11T08:09:05;28.70;;;12.63;;
19804;SDS011;10062;51.052;13.756;2024-01-11T08:11:40;28.00;;;12.50;;
19804;SDS011;10062;51.052;13.756;2024-01-11T08:14:13;30.47;;;12.03;;
19804;SDS011;10062;51.052;13.756;2024-01-11T08:16:45;28.93;;;12.43;;
19804;SDS011;10062;51.052;13.756;2024-01-11T08:19:17;30.23;;;13.73;;
19804;SDS011;10062;51.052;13.756;2024-01-11T08:21:49;25.37;;;10.63;;
19804;SDS011;10062;51.052;13.756;2024-01-11T08:24:20;26.90;;;11.53;;
19804;SDS011;10062;51.052;13.756;2024-01-11T08:26:52;20.47;;;9.93;;
19804;SDS011;10062;51.052;13.756;2024-01-11T08:29:25;30.43;;;12.93;;
19804;SDS011;10062;51.052;13.756;2024-01-11T08:31:58;30.47;;;14.07;;
19804;SDS011;10062;51.052;13.756;2024-01-11T08:34:31;32.53;;;14.03;;
19804;SDS011;10062;51.052;13.756;2024-01-11T08:37:03;29.53;;;13.30;;
19804;SDS011;10062;51.052;13.756;2024-01-11T08:39:35;29.00;;;12.83;;
19804;SDS011;10062;51.052;13.756;2024-01-11T08:42:06;31.23;;;12.33;;
19804;SDS011;10062;51.052;13.756;2024-01-11T08:44:41;27.53;;;11.17;;
19804;SDS011;10062;51.052;13.756;2024-01-11T08:47:13;23.87;;;11.90;;
19804;SDS011;10062;51.052;13.756;2024-01-11T08:49:45;31.20;;;13.47;;
19804;SDS011;10062;51.052;13.756;2024-01-11T08:52:16;24.30;;;12.00;;
19804;SDS011;10062;51.052;13.756;2024-01-11T08:54:48;33.30;;;15.93;;
19804;SDS011;10062;51.052;13.756;2024-01-11T08:57:20;34.53;;;14.87;;
19804;SDS011;10062;51.052;13.756;2024-01-11T08:59:53;32.20;;;15.00;;
19804;SDS011;10062;51.052;13.756;2024-01-11T09:02:24;24.97;;;11.13;;
19804;SDS011;10062;51.052;13.756;2024-01-11T09:04:56;28.23;;;12.70;;
19804;SDS011;10062;51.052;13.756;2024-01-11T09:07:27;23.93;;;12.83;;
19804;SDS011;10062;51.052;13.756;2024-01-11T09:10:00;33.23;;;13.53;;
19804;SDS011;10062;51.052;13.756;2024-01-11T09:12:32;23.17;;;11.90;;
19804;SDS011;10062;51.052;13.756;2024-01-11T09:15:06;39.23;;;17.20;;
19804;SDS011;10062;51.052;13.756;2024-01-11T09:17:38;37.67;;;18.40;;
19804;SDS011;10062;51.052;13.756;2024-01-11T09:20:10;49.97;;;22.63;;
19804;SDS011;10062;51.052;13.756;2024-01-11T09:22:44;50.13;;;23.03;;
19804;SDS011;10062;51.052;13.756;2024-01-11T09:25:16;58.60;;;26.93;;
19804;SDS011;10062;51.052;13.756;2024-01-11T09:27:48;55.90;;;24.70;;
19804;SDS011;10062;51.052;13.756;2024-01-11T09:30:21;56.50;;;26.77;;
19804;SDS011;10062;51.052;13.756;2024-01-11T09:32:53;43.40;;;23.90;;
19804;SDS011;10062;51.052;13.756;2024-01-11T09:35:25;45.67;;;22.10;;
19804;SDS011;10062;51.052;13.756;2024-01-11T09:37:57;52.60;;;22.17;;
19804;SDS011;10062;51.052;13.756;2024-01-11T09:40:31;39.60;;;20.30;;
19804;SDS011;10062;51.052;13.756;2024-01-11T09:43:03;55.27;;;25.60;;
19804;SDS011;10062;51.052;13.756;2024-01-11T09:45:37;56.20;;;25.10;;
19804;SDS011;10062;51.052;13.756;2024-01-11T09:48:08;57.23;;;28.93;;
19804;SDS011;10062;51.052;13.756;2024-01-11T09:50:41;60.77;;;29.93;;
19804;SDS011;10062;51.052;13.756;2024-01-11T09:53:14;57.43;;;27.73;;
19804;SDS011;10062;51.052;13.756;2024-01-11T09:55:47;59.90;;;31.87;;
19804;SDS011;10062;51.052;13.756;2024-01-11T09:58:19;58.73;;;27.90;;
19804;SDS011;10062;51.052;13.756;2024-01-11T10:00:54;54.73;;;26.37;;
19804;SDS011;10062;51.052;13.756;2024-01-11T10:03:27;63.37;;;29.90;;
19804;SDS011;10062;51.052;13.756;2024-01-11T10:05:59;59.40;;;28.60;;
19804;SDS011;10062;51.052;13.756;2024-01-11T10:08:32;64.27;;;28.53;;
19804;SDS011;10062;51.052;13.756;2024-01-11T10:11:04;61.60;;;32.60;;
19804;SDS011;10062;51.052;13.756;2024-01-11T10:13:35;65.87;;;28.37;;
19804;SDS011;10062;51.052;13.756;2024-01-11T10:16:10;63.33;;;28.97;;
19804;SDS011;10062;51.052;13.756;2024-01-11T10:18:43;63.33;;;29.83;;
19804;SDS011;10062;51.052;13.756;2024-01-11T10:21:15;65.47;;;28.77;;
19804;SDS011;10062;51.052;13.756;2024-01-11T10:23:48;68.90;;;32.23;;
19804;SDS011;10062;51.052;13.756;2024-01-11T10:26:20;71.10;;;31.53;;
19804;SDS011;10062;51.052;13.756;2024-01-11T10:28:53;65.70;;;32.17;;
19804;SDS011;10062;51.052;13.756;2024-01-11T10:31:29;68.53;;;31.63;;
19804;SDS011;10062;51.052;13.756;2024-01-11T10:34:00;63.53;;;27.43;;
19804;SDS011;10062;51.052;13.756;2024-01-11T10:36:32;70.17;;;31.90;;
19804;SDS011;10062;51.052;13.756;2024-01-11T10:39:04;63.87;;;29.40;;
19804;SDS011;10062;51.052;13.756;2024-01-11T10:41:38;72.50;;;34.20;;
19804;SDS011;10062;51.052;13.756;2024-01-11T10:44:13;66.57;;;28.67;;
19804;SDS011;10062;51.052;13.756;2024-01-11T10:46:50;77.97;;;33.23;;
19804;SDS011;10062;51.052;13.756;2024-01-11T10:49:27;76.43;;;34.13;;
19804;SDS011;10062;51.052;13.756;2024-01-11T10:52:02;74.93;;;35.37;;
19804;SDS011;10062;51.052;13.756;2024-01-11T10:54:35;78.87;;;34.47;;
19804;SDS011;10062;51.052;13.756;2024-01-11T10:57:09;84.97;;;38.67;;
19804;SDS011;10062;51.052;13.756;2024-01-11T10:59:43;82.97;;;38.10;;
19804;SDS011;10062;51.052;13.756;2024-01-11T11:02:17;70.40;;;34.40;;
19804;SDS011;10062;51.052;13.756;2024-01-11T11:04:50;76.23;;;32.13;;
19804;SDS011;10062;51.052;13.756;2024-01-11T11:07:24;74.40;;;35.27;;
19804;SDS011;10062;51.052;13.756;2024-01-11T11:09:57;81.70;;;38.60;;
19804;SDS011;10062;51.052;13.756;2024-01-11T11:12:30;80.47;;;37.00;;
19804;SDS011;10062;51.052;13.756;2024-01-11T11:15:04;56.93;;;27.83;;
19804;SDS011;10062;51.052;13.756;2024-01-11T11:17:39;75.43;;;35.97;;
19804;SDS011;10062;51.052;13.756;2024-01-11T11:20:11;72.77;;;37.43;;
19804;SDS011;10062;51.052;13.756;2024-01-11T11:22:47;69.23;;;33.60;;
19804;SDS011;10062;51.052;13.756;2024-01-11T11:25:33;80.27;;;36.40;;
19804;SDS011;10062;51.052;13.756;2024-01-11T11:28:05;78.90;;;36.23;;
19804;SDS011;10062;51.052;13.756;2024-01-11T11:30:37;73.53;;;35.37;;
19804;SDS011;10062;51.052;13.756;2024-01-11T11:33:11;73.53;;;35.97;;
19804;SDS011;10062;51.052;13.756;2024-01-11T11:35:48;73.90;;;35.70;;
19804;SDS011;10062;51.052;13.756;2024-01-11T11:38:23;65.80;;;33.30;;
19804;SDS011;10062;51.052;13.756;2024-01-11T11:40:57;65.97;;;33.13;;
19804;SDS011;10062;51.052;13.756;2024-01-11T11:43:29;68.23;;;33.90;;
19804;SDS011;10062;51.052;13.756;2024-01-11T11:46:03;64.03;;;29.77;;
19804;SDS011;10062;51.052;13.756;2024-01-11T11:48:51;60.70;;;29.70;;
19804;SDS011;10062;51.052;13.756;2024-01-11T11:51:24;69.73;;;33.60;;
19804;SDS011;10062;51.052;13.756;2024-01-11T11:53:56;70.70;;;31.60;;
19804;SDS011;10062;51.052;13.756;2024-01-11T11:56:28;68.33;;;33.87;;
19804;SDS011;10062;51.052;13.756;2024-01-11T11:59:00;60.40;;;31.67;;
19804;SDS011;10062;51.052;13.756;2024-01-11T12:01:33;60.13;;;29.60;;
19804;SDS011;10062;51.052;13.756;2024-01-11T12:04:09;71.83;;;35.97;;
19804;SDS011;10062;51.052;13.756;2024-01-11T12:06:40;63.77;;;30.97;;
19804;SDS011;10062;51.052;13.756;2024-01-11T12:09:12;61.97;;;31.77;;
19804;SDS011;10062;51.052;13.756;2024-01-11T12:11:51;61.97;;;30.57;;
19804;SDS011;10062;51.052;13.756;2024-01-11T12:14:23;63.97;;;29.77;;
19804;SDS011;10062;51.052;13.756;2024-01-11T12:16:56;64.90;;;29.90;;
19804;SDS011;10062;51.052;13.756;2024-01-11T12:19:29;65.80;;;33.17;;
19804;SDS011;10062;51.052;13.756;2024-01-11T12:22:01;62.50;;;28.63;;
19804;SDS011;10062;51.052;13.756;2024-01-11T12:24:33;61.23;;;29.33;;
19804;SDS011;10062;51.052;13.756;2024-01-11T12:27:05;60.30;;;29.97;;
19804;SDS011;10062;51.052;13.756;2024-01-11T12:29:38;56.57;;;27.17;;
19804;SDS011;10062;51.052;13.756;2024-01-11T12:32:10;60.67;;;28.27;;
19804;SDS011;10062;51.052;13.756;2024-01-11T12:34:43;62.03;;;28.93;;
19804;SDS011;10062;51.052;13.756;2024-01-11T12:37:16;57.57;;;28.00;;
19804;SDS011;10062;51.052;13.756;2024-01-11T12:39:47;60.73;;;28.83;;
19804;SDS011;10062;51.052;13.756;2024-01-11T12:42:19;59.13;;;28.30;;
19804;SDS011;10062;51.052;13.756;2024-01-11T12:44:52;50.77;;;25.77;;
19804;SDS011;10062;51.052;13.756;2024-01-11T12:47:24;61.77;;;29.77;;
19804;SDS011;10062;51.052;13.756;2024-01-11T12:49:56;52.90;;;24.60;;
19804;SDS011;10062;51.052;13.756;2024-01-11T12:52:28;62.97;;;27.13;;
19804;SDS011;10062;51.052;13.756;2024-01-11T12:55:00;62.83;;;29.47;;
19804;SDS011;10062;51.052;13.756;2024-01-11T12:57:32;66.13;;;29.20;;
19804;SDS011;10062;51.052;13.756;2024-01-11T13:00:10;61.33;;;30.27;;
19804;SDS011;10062;51.052;13.756;2024-01-11T13:02:42;64.10;;;28.57;;
19804;SDS011;10062;51.052;13.756;2024-01-11T13:05:15;56.73;;;26.50;;
19804;SDS011;10062;51.052;13.756;2024-01-11T13:07:47;63.33;;;33.37;;
19804;SDS011;10062;51.052;13.756;2024-01-11T13:10:20;63.10;;;29.93;;
19804;SDS011;10062;51.052;13.756;2024-01-11T13:12:54;57.93;;;24.60;;
19804;SDS011;10062;51.052;13.756;2024-01-11T13:15:26;58.53;;;28.10;;
19804;SDS011;10062;51.052;13.756;2024-01-11T13:17:59;56.33;;;28.23;;
19804;SDS011;10062;51.052;13.756;2024-01-11T13:20:32;55.00;;;26.40;;
19804;SDS011;10062;51.052;13.756;2024-01-11T13:23:13;56.33;;;25.50;;
19804;SDS011;10062;51.052;13.756;2024-01-11T13:25:46;55.63;;;27.97;;
19804;SDS011;10062;51.052;13.756;2024-01-11T13:28:19;52.17;;;23.77;;
19804;SDS011;10062;51.052;13.756;2024-01-11T13:30:51;58.83;;;26.57;;
19804;SDS011;10062;51.052;13.756;2024-01-11T13:33:22;54.43;;;28.27;;
19804;SDS011;10062;51.052;13.756;2024-01-11T13:35:55;58.77;;;26.33;;
19804;SDS011;10062;51.052;13.756;2024-01-11T13:38:27;49.50;;;23.80;;
19804;SDS011;10062;51.052;13.756;2024-01-11T13:40:59;44.53;;;21.03;;
19804;SDS011;10062;51.052;13.756;2024-01-11T13:43:30;54.10;;;24.63;;
19804;SDS011;10062;51.052;13.756;2024-01-11T13:46:03;52.67;;;27.00;;
19804;SDS011;10062;51.052;13.756;2024-01-11T13:48:35;57.97;;;27.07;;
19804;SDS011;10062;51.052;13.756;2024-01-11T13:51:08;47.13;;;23.07;;
19804;SDS011;10062;51.052;13.756;2024-01-11T13:53:43;57.97;;;28.87;;
19804;SDS011;10062;51.052;13.756;2024-01-11T13:56:14;51.63;;;25.23;;
19804;SDS011;10062;51.052;13.756;2024-01-11T13:58:46;49.90;;;23.83;;
19804;SDS011;10062;51.052;13.756;2024-01-11T14:01:18;53.50;;;24.47;;
19804;SDS011;10062;51.052;13.756;2024-01-11T14:03:50;54.20;;;24.90;;
19804;SDS011;10062;51.052;13.756;2024-01-11T14:06:23;53.77;;;25.47;;
19804;SDS011;10062;51.052;13.756;2024-01-11T14:08:55;55.53;;;25.80;;
19804;SDS011;10062;51.052;13.756;2024-01-11T14:11:27;50.57;;;26.43;;
19804;SDS011;10062;51.052;13.756;2024-01-11T14:13:58;52.43;;;27.33;;
19804;SDS011;10062;51.052;13.756;2024-01-11T14:16:30;60.00;;;29.77;;
19804;SDS011;10062;51.052;13.756;2024-01-11T14:19:02;59.00;;;28.53;;
19804;SDS011;10062;51.052;13.756;2024-01-11T14:21:35;53.13;;;26.23;;
19804;SDS011;10062;51.052;13.756;2024-01-11T14:24:07;44.37;;;19.60;;
19804;SDS011;10062;51.052;13.756;2024-01-11T14:26:39;50.27;;;22.97;;
19804;SDS011;10062;51.052;13.756;2024-01-11T14:29:11;43.13;;;22.13;;
19804;SDS011;10062;51.052;13.756;2024-01-11T14:31:43;51.77;;;24.47;;
19804;SDS011;10062;51.052;13.756;2024-01-11T14:34:14;45.47;;;19.80;;
19804;SDS011;10062;51.052;13.756;2024-01-11T14:36:48;54.73;;;28.53;;
19804;SDS011;10062;51.052;13.756;2024-01-11T14:39:19;38.33;;;16.10;;
19804;SDS011;10062;51.052;13.756;2024-01-11T14:41:53;53.43;;;24.20;;